Time;durP1;ratioP1;P1;durP2;ratioP2;P2;SDS_P1;SDS_P2;PMS_P1;PMS_P2;Temp;Humidity;BMP_temperature;BMP_pressure;BME280_temperature;BME280_humidity;BME280_pressure;Samples;Min_cycle;Max_cycle;Signal;HPM_P1;HPM_P2
2022/08/07 00:02:13;;;;;;;14.50;11.20;;;;;;;20.63;78.34;100848.00;104596;1285;71541;-80
2022/08/07 00:05:03;;;;;;;13.20;10.70;;;;;;;20.62;77.70;100848.67;104527;1285;70017;-80
2022/08/07 00:07:33;;;;;;;15.80;10.60;;;;;;;20.57;77.17;100852.05;104391;1286;73201;-80
2022/08/07 00:10:09;;;;;;;12.60;10.50;;;;;;;20.51;76.90;100849.23;104638;1285;59608;-81
2022/08/07 00:13:05;;;;;;;12.40;10.20;;;;;;;20.41;77.82;100854.71;104565;1285;60666;-80
2022/08/07 00:15:54;;;;;;;13.10;10.30;;;;;;;20.32;79.04;100855.06;104691;1284;73773;-79
2022/08/07 00:18:28;;;;;;;12.30;10.20;;;;;;;20.29;78.77;100858.67;104396;1285;72557;-79
2022/08/07 00:21:04;;;;;;;13.30;11.20;;;;;;;20.28;78.61;100858.65;104622;1285;71303;-80
2022/08/07 00:23:39;;;;;;;13.30;10.40;;;;;;;20.27;79.34;100857.86;104574;1285;73945;-82
2022/08/07 00:26:10;;;;;;;14.70;10.50;;;;;;;20.27;79.26;100860.80;104931;1282;62129;-83
2022/08/07 00:28:58;;;;;;;15.30;10.30;;;;;;;20.28;78.70;100858.33;104753;1283;59821;-84
2022/08/07 00:31:27;;;;;;;13.00;10.20;;;;;;;20.27;79.24;100858.80;104843;1285;62983;-84
2022/08/07 00:34:09;;;;;;;14.50;10.90;;;;;;;20.27;79.32;100863.17;104562;1286;72035;-73
2022/08/07 00:36:39;;;;;;;13.70;10.80;;;;;;;20.31;79.38;100863.98;104608;1285;71359;-80
2022/08/07 00:39:12;;;;;;;;;;;;;;;20.36;78.74;100863.75;104787;1284;64944;-76
2022/08/07 00:41:57;;;;;;;13.90;10.70;;;;;;;20.39;78.37;100858.86;104692;1283;59785;-80
2022/08/07 00:44:34;;;;;;;13.40;10.70;;;;;;;20.33;78.30;100860.93;104719;1282;57926;-72
2022/08/07 00:47:08;;;;;;;13.10;10.10;;;;;;;20.29;78.31;100864.38;104667;1282;64006;-74
2022/08/07 00:49:58;;;;;;;13.70;11.50;;;;;;;20.26;78.33;100862.58;104665;1282;71768;-77
2022/08/07 00:52:47;;;;;;;16.90;11.10;;;;;;;20.24;78.68;100865.17;104524;1286;59145;-82
2022/08/07 00:55:17;;;;;;;14.30;11.00;;;;;;;20.23;79.58;100866.30;104578;1286;62624;-82
2022/08/07 00:58:05;;;;;;;15.80;11.50;;;;;;;20.28;79.90;100868.61;104568;1286;60391;-83
2022/08/07 01:00:34;;;;;;;17.90;11.70;;;;;;;20.28;79.91;100868.38;104609;1285;59558;-81
2022/08/07 01:03:03;;;;;;;15.90;11.30;;;;;;;20.29;79.89;100872.67;104620;1285;75701;-81
2022/08/07 01:05:35;;;;;;;15.10;11.20;;;;;;;20.33;79.92;100874.35;104851;1285;61281;-83
2022/08/07 01:08:05;;;;;;;12.30;10.70;;;;;;;20.36;79.87;100875.63;104659;1285;60224;-83
2022/08/07 01:10:38;;;;;;;15.50;11.10;;;;;;;20.36;79.64;100880.25;104494;1286;63301;-81
2022/08/07 01:13:15;;;;;;;13.60;10.50;;;;;;;20.32;80.03;100888.80;104561;1285;62413;-83
2022/08/07 01:15:46;;;;;;;13.30;10.60;;;;;;;20.30;80.37;100889.84;104655;1285;61383;-82
2022/08/07 01:18:35;;;;;;;14.20;10.30;;;;;;;20.29;80.49;100882.95;104568;1284;63653;-81
2022/08/07 01:21:20;;;;;;;14.10;11.60;;;;;;;20.31;79.86;100882.70;104482;1284;61071;-83
2022/08/07 01:23:53;;;;;;;15.20;11.00;;;;;;;20.32;79.44;100883.73;104727;1283;60161;-82
2022/08/07 01:26:23;;;;;;;15.50;12.30;;;;;;;20.25;79.56;100882.74;104699;1283;63964;-83
2022/08/07 01:28:54;;;;;;;14.10;10.90;;;;;;;20.19;80.62;100882.20;104602;1286;62337;-81
2022/08/07 01:31:30;;;;;;;12.70;11.00;;;;;;;20.19;80.57;100885.14;104650;1285;59539;-83
2022/08/07 01:34:16;;;;;;;12.20;10.10;;;;;;;20.15;80.58;100889.48;104677;1286;63199;-81
2022/08/07 01:36:48;;;;;;;14.30;11.20;;;;;;;20.09;80.90;100896.63;104638;1282;71804;-82
2022/08/07 01:39:28;;;;;;;15.30;12.00;;;;;;;20.04;81.10;100885.20;104681;1285;71664;-84
2022/08/07 01:42:15;;;;;;;15.10;12.00;;;;;;;20.06;80.25;100888.11;104635;1285;73201;-82
2022/08/07 01:45:06;;;;;;;14.50;10.60;;;;;;;20.04;79.90;100887.20;104508;1286;59712;-85
2022/08/07 01:47:46;;;;;;;12.40;10.90;;;;;;;19.97;79.34;100894.86;104625;1288;57859;-83
2022/08/07 01:50:38;;;;;;;15.20;12.00;;;;;;;19.80;81.18;100894.20;104629;1286;75545;-81
2022/08/07 01:53:13;;;;;;;14.80;10.50;;;;;;;19.73;81.76;100895.63;104441;1288;60966;-83
2022/08/07 01:56:05;;;;;;;18.10;11.60;;;;;;;19.70;82.01;100893.64;104496;1285;71743;-83
2022/08/07 01:58:47;;;;;;;15.40;11.20;;;;;;;19.70;82.17;100893.55;104571;1285;62954;-83
2022/08/07 02:01:24;;;;;;;14.00;11.00;;;;;;;19.71;82.03;100893.05;104366;1287;59724;-82
2022/08/07 02:04:46;;;;;;;17.60;11.40;;;;;;;19.70;82.21;100897.23;104446;1288;59224;-84
2022/08/07 02:07:32;;;;;;;13.00;11.50;;;;;;;19.75;82.14;100897.73;104448;1286;73596;-83
2022/08/07 02:10:15;;;;;;;14.20;11.50;;;;;;;19.74;80.94;100895.91;104583;1286;73404;-84
2022/08/07 02:12:47;;;;;;;15.40;11.10;;;;;;;19.68;80.95;100897.95;104589;1287;69587;-83
2022/08/07 02:15:25;;;;;;;14.60;10.70;;;;;;;19.57;81.42;100900.37;104700;1286;63004;-82
2022/08/07 02:17:58;;;;;;;14.40;11.70;;;;;;;19.47;81.68;100900.76;104514;1286;59788;-81
2022/08/07 02:20:30;;;;;;;15.10;11.40;;;;;;;19.40;82.92;100907.99;104757;1285;59093;-82
2022/08/07 02:23:04;;;;;;;16.20;11.50;;;;;;;19.41;83.59;100911.67;104462;1286;63132;-82
2022/08/07 02:25:38;;;;;;;15.00;11.70;;;;;;;19.41;83.33;100909.66;104508;1285;72496;-83
2022/08/07 02:28:30;;;;;;;16.10;10.60;;;;;;;19.40;82.86;100907.89;104665;1285;60082;-82
2022/08/07 02:31:05;;;;;;;15.10;11.30;;;;;;;19.33;82.70;100909.30;104678;1285;73542;-84
2022/08/07 02:33:56;;;;;;;14.30;11.50;;;;;;;19.16;83.21;100912.52;104523;1286;62411;-82
2022/08/07 02:36:49;;;;;;;14.10;11.00;;;;;;;19.14;84.40;100911.98;104841;1286;60989;-82
2022/08/07 02:39:19;;;;;;;15.80;11.20;;;;;;;19.18;84.41;100917.23;104707;1286;72063;-83
2022/08/07 02:42:10;;;;;;;13.90;11.70;;;;;;;19.22;84.10;100916.08;104780;1283;71722;-83
2022/08/07 02:44:48;;;;;;;13.30;11.60;;;;;;;19.22;83.89;100919.64;104660;1285;59947;-82
2022/08/07 02:47:22;;;;;;;15.40;11.60;;;;;;;19.21;83.16;100920.10;104706;1285;62710;-82
2022/08/07 02:50:03;;;;;;;15.90;12.30;;;;;;;19.14;83.16;100922.61;104552;1285;62458;-80
2022/08/07 02:52:41;;;;;;;18.30;11.50;;;;;;;19.07;83.35;100925.11;104691;1283;60922;-81
2022/08/07 02:55:24;;;;;;;15.90;12.00;;;;;;;19.02;83.82;100928.29;104514;1286;63647;-81
2022/08/07 02:58:20;;;;;;;18.00;11.60;;;;;;;18.98;83.15;100931.35;104579;1286;61145;-82
2022/08/07 03:00:58;;;;;;;15.20;12.00;;;;;;;18.93;82.57;100928.36;104471;1286;70920;-82
2022/08/07 03:03:32;;;;;;;14.20;11.60;;;;;;;18.88;83.75;100938.55;106415;1285;63933;-81
2022/08/07 03:06:28;;;;;;;15.00;11.10;;;;;;;18.82;85.23;100942.15;106070;1289;58122;-84
2022/08/07 03:13:46;;;;;;;19.10;12.00;;;;;;;18.79;85.38;100938.02;106047;1291;73961;-82
2022/08/07 03:17:37;;;;;;;13.40;11.10;;;;;;;18.93;85.08;100951.45;105689;1291;71977;-82
2022/08/07 03:20:28;;;;;;;16.20;11.70;;;;;;;19.09;84.64;100949.63;105642;1292;69450;-80
2022/08/07 03:22:58;;;;;;;15.50;11.30;;;;;;;19.16;84.29;100953.32;105665;1290;73386;-81
2022/08/07 03:25:35;;;;;;;13.60;11.50;;;;;;;19.15;83.77;100958.65;105704;1292;62950;-81
2022/08/07 03:28:56;;;;;;;14.10;11.50;;;;;;;19.12;84.26;100969.23;105628;1293;58221;-80
2022/08/07 03:31:32;;;;;;;16.70;11.90;;;;;;;19.16;84.09;100973.23;105490;1294;73853;-81
2022/08/07 03:34:20;;;;;;;16.50;12.50;;;;;;;19.23;84.03;100976.06;105513;1292;72146;-82
2022/08/07 03:37:02;;;;;;;14.70;11.40;;;;;;;19.30;84.10;100976.17;105840;1291;59840;-83
2022/08/07 03:40:06;;;;;;;15.60;11.30;;;;;;;19.40;83.64;100973.12;105929;1289;62707;-82
2022/08/07 03:42:56;;;;;;;16.60;12.30;;;;;;;19.51;83.34;100978.92;106147;1289;62415;-83
2022/08/07 03:45:37;;;;;;;15.50;12.50;;;;;;;19.60;83.21;100984.33;106164;1289;62691;-79
2022/08/07 03:48:28;;;;;;;18.70;11.70;;;;;;;19.66;82.77;100984.04;106102;1289;63038;-82
2022/08/07 03:52:33;;;;;;;15.10;11.80;;;;;;;19.75;82.48;100985.91;106459;1288;70976;-83
2022/08/07 03:55:42;;;;;;;13.30;11.50;;;;;;;19.80;81.34;100986.98;105685;1289;61127;-78
2022/08/07 03:58:33;;;;;;;16.90;11.80;;;;;;;19.78;81.69;100986.64;104987;1286;62614;-75
2022/08/07 04:01:26;;;;;;;16.30;12.10;;;;;;;19.80;81.96;100989.46;104971;1286;59624;-77
2022/08/07 04:03:55;;;;;;;13.20;11.50;;;;;;;19.85;81.82;100987.11;104857;1288;59633;-76
2022/08/07 04:06:25;;;;;;;18.80;12.20;;;;;;;19.92;81.45;100988.88;105278;1285;64542;-79
2022/08/07 04:09:14;;;;;;;17.90;12.50;;;;;;;19.98;81.32;100986.78;105985;1285;71867;-81
2022/08/07 04:11:51;;;;;;;16.30;12.50;;;;;;;20.09;81.08;100985.99;106559;1285;59688;-81
2022/08/07 04:14:42;;;;;;;18.90;12.80;;;;;;;20.19;80.74;100989.77;106474;1283;73385;-83
2022/08/07 04:17:21;;;;;;;15.20;12.80;;;;;;;20.27;80.79;100992.16;106762;1279;62232;-82
2022/08/07 04:20:15;;;;;;;18.80;12.90;;;;;;;20.33;80.40;100995.14;106801;1282;58219;-82
2022/08/07 04:22:48;;;;;;;19.10;11.80;;;;;;;20.45;79.77;101001.00;106773;1282;73872;-81
2022/08/07 04:25:44;;;;;;;17.20;12.50;;;;;;;20.56;79.44;101007.37;106867;1280;71743;-83
2022/08/07 04:28:21;;;;;;;17.60;12.30;;;;;;;20.63;79.23;101012.50;106687;1282;70663;-80
2022/08/07 04:30:56;;;;;;;16.20;12.20;;;;;;;20.70;78.97;101010.56;106788;1275;73299;31
2022/08/07 04:33:33;;;;;;;36.40;20.50;;;;;;;20.89;78.44;101009.55;106783;1275;59644;-81
2022/08/07 04:36:07;;;;;;;17.70;13.20;;;;;;;20.98;78.21;101013.20;106535;1282;61495;-81
2022/08/07 04:38:38;;;;;;;18.50;13.40;;;;;;;21.06;78.06;101012.04;106669;1282;74417;-82
2022/08/07 04:41:09;;;;;;;16.00;12.70;;;;;;;21.20;77.84;101017.73;106715;1282;72073;-83
2022/08/07 04:43:55;;;;;;;15.80;12.00;;;;;;;21.34;77.17;101020.82;106865;1280;59820;-81
2022/08/07 04:47:44;;;;;;;13.70;12.20;;;;;;;21.51;76.49;101025.79;106729;1282;62624;-82
2022/08/07 04:50:47;;;;;;;16.10;11.10;;;;;;;21.71;75.37;101029.39;106857;1282;62540;-81
2022/08/07 04:53:50;;;;;;;15.40;11.90;;;;;;;21.87;74.94;101031.24;106843;1283;58359;-81
2022/08/07 04:56:48;;;;;;;15.80;12.90;;;;;;;22.03;74.51;101034.16;106821;1282;63668;-80
2022/08/07 05:00:27;;;;;;;13.90;12.40;;;;;;;22.19;74.02;101033.35;106954;1282;61055;-83
2022/08/07 05:03:49;;;;;;;14.00;11.10;;;;;;;22.37;73.04;101038.20;106707;1282;59268;-82
2022/08/07 05:10:41;;;;;;;17.10;11.70;;;;;;;22.62;72.00;101040.73;107083;1275;58074;-82
2022/08/07 05:13:37;;;;;;;13.80;11.60;;;;;;;22.71;71.26;101047.09;106842;1280;61788;-84
2022/08/07 05:16:30;;;;;;;15.50;13.60;;;;;;;22.79;70.60;101045.88;105178;1283;72515;-77
2022/08/07 05:19:11;;;;;;;12.00;10.70;;;;;;;22.83;70.17;101049.07;105229;1285;61854;-76
2022/08/07 05:21:51;;;;;;;13.80;10.70;;;;;;;22.85;69.63;101052.71;104845;1282;70056;-77
2022/08/07 05:24:33;;;;;;;14.50;11.50;;;;;;;22.84;69.93;101057.98;105462;1285;73200;-77
2022/08/07 05:27:13;;;;;;;12.20;10.70;;;;;;;22.97;69.25;101058.93;104486;1282;1374651;-77
2022/08/07 05:30:03;;;;;;;15.00;10.70;;;;;;;22.95;69.01;101046.73;105663;1285;57913;-78
2022/08/07 05:32:34;;;;;;;12.70;11.20;;;;;;;23.04;68.98;101062.27;105903;1282;73875;-80
2022/08/07 05:35:07;;;;;;;14.10;11.30;;;;;;;23.03;69.20;101061.09;105468;1285;73100;-77
2022/08/07 05:37:36;;;;;;;;;;;;;;;23.11;68.82;101061.00;105456;1282;59891;-77
2022/08/07 05:40:11;;;;;;;14.00;10.80;;;;;;;23.16;68.79;101058.65;105554;1283;73334;-78
2022/08/07 05:42:47;;;;;;;14.90;10.70;;;;;;;23.28;68.77;101059.92;105599;1282;63085;-78
2022/08/07 05:45:26;;;;;;;14.10;11.30;;;;;;;23.32;68.23;101063.70;105180;1285;59646;-77
2022/08/07 05:48:20;;;;;;;16.20;11.60;;;;;;;23.38;67.93;101062.88;105335;1284;63182;-79
2022/08/07 05:50:58;;;;;;;13.90;11.30;;;;;;;23.39;67.94;101062.48;105491;1285;61059;-77
2022/08/07 05:53:30;;;;;;;17.90;12.00;;;;;;;23.46;67.95;101066.51;105898;1285;70057;-80
2022/08/07 05:56:24;;;;;;;14.00;12.00;;;;;;;23.35;68.15;101042.86;106455;1284;74516;-81
2022/08/07 05:59:08;;;;;;;15.40;11.10;;;;;;;23.57;68.05;101074.59;106695;1285;58256;-81
2022/08/07 06:01:45;;;;;;;14.20;10.10;;;;;;;23.70;67.33;101073.05;106596;1280;60455;-82
2022/08/07 06:04:20;;;;;;;15.00;11.00;;;;;;;23.72;67.19;101074.89;106869;1282;63079;-80
2022/08/07 06:07:04;;;;;;;15.10;11.20;;;;;;;23.83;67.19;101075.54;106562;1282;70978;-79
2022/08/07 06:09:37;;;;;;;15.90;11.40;;;;;;;23.96;66.71;101074.71;106106;1282;59882;-78
2022/08/07 06:12:29;;;;;;;18.00;10.90;;;;;;;24.07;65.89;101079.48;106062;1282;73149;-79
2022/08/07 06:15:01;;;;;;;14.40;11.10;;;;;;;24.06;65.91;101077.41;106211;1282;60710;-79
2022/08/07 06:17:34;;;;;;;15.10;11.50;;;;;;;24.18;65.81;101081.21;105845;1285;61037;-79
2022/08/07 06:20:10;;;;;;;19.00;11.70;;;;;;;24.23;66.11;101085.41;105946;1284;73793;-81
2022/08/07 06:22:53;;;;;;;14.10;11.60;;;;;;;24.41;65.62;101084.73;105935;1282;73535;-77
2022/08/07 06:25:45;;;;;;;15.50;11.60;;;;;;;24.45;65.41;101087.64;105860;1282;71338;-77
2022/08/07 06:28:25;;;;;;;14.40;12.30;;;;;;;24.52;65.08;101088.48;105738;1282;63776;-77
2022/08/07 06:30:56;;;;;;;14.10;11.20;;;;;;;24.53;64.79;101084.84;105882;1285;59746;-81
2022/08/07 06:33:27;;;;;;;13.30;11.60;;;;;;;24.40;65.11;101086.91;106212;1285;60695;-80
2022/08/07 06:36:00;;;;;;;17.90;12.40;;;;;;;24.57;64.60;101086.32;106296;1280;63514;-82
2022/08/07 06:38:46;;;;;;;14.70;10.60;;;;;;;24.70;64.63;101088.50;105354;1282;61841;-75
2022/08/07 06:41:43;;;;;;;15.40;12.20;;;;;;;24.84;64.02;101091.40;106637;1281;70860;-83
2022/08/07 06:56:12;;;;;;;15.00;12.10;;;;;;;25.30;63.14;101078.52;107530;1269;606987;-84
2022/08/07 06:58:47;;;;;;;17.50;12.30;;;;;;;25.60;61.75;101085.65;105614;1238;6160406;-77
2022/08/07 07:01:43;;;;;;;12.90;11.00;;;;;;;25.68;61.42;101080.23;109678;1237;60954;-79
2022/08/07 07:04:21;;;;;;;15.30;13.00;;;;;;;25.63;62.05;101079.16;109686;1237;71851;-78
2022/08/07 07:07:06;;;;;;;16.70;13.50;;;;;;;25.66;61.65;101086.37;109517;1237;72800;-76
2022/08/07 07:09:53;;;;;;;15.20;12.70;;;;;;;25.68;61.66;101080.05;108639;1237;59986;-76
2022/08/07 07:12:54;;;;;;;19.80;13.20;;;;;;;25.74;61.46;101078.67;108654;1237;72080;-75
2022/08/07 07:15:33;;;;;;;16.90;12.30;;;;;;;25.71;61.38;101078.38;108660;1237;61135;-75
2022/08/07 07:18:24;;;;;;;17.10;13.00;;;;;;;25.75;61.39;101078.11;108822;1237;58310;-75
2022/08/07 07:21:20;;;;;;;19.50;13.00;;;;;;;25.83;61.14;101077.61;108916;1237;61215;-74
2022/08/07 07:23:55;;;;;;;15.40;13.10;;;;;;;25.93;60.93;101078.80;108907;1237;72576;-75
2022/08/07 07:26:43;;;;;;;16.80;14.00;;;;;;;26.02;60.57;101078.15;108862;1237;71248;-74
2022/08/07 07:29:28;;;;;;;15.40;12.00;;;;;;;26.13;60.02;101078.70;108591;1237;73484;-74
2022/08/07 07:32:17;;;;;;;15.70;12.10;;;;;;;26.15;59.65;101079.80;108742;1237;60722;-74
2022/08/07 07:34:51;;;;;;;17.90;13.20;;;;;;;26.11;59.61;101091.30;108819;1237;59015;-74
2022/08/07 07:37:21;;;;;;;18.70;13.30;;;;;;;26.09;59.69;101095.12;109202;1235;72794;-73
2022/08/07 07:40:17;;;;;;;14.10;12.50;;;;;;;26.20;59.50;101096.70;109936;1237;61222;-75
2022/08/07 07:42:52;;;;;;;16.20;12.50;;;;;;;26.30;58.80;101098.68;110172;1237;59139;-79
2022/08/07 07:45:26;;;;;;;16.70;12.30;;;;;;;26.30;58.92;101095.46;108891;1236;73095;-76
2022/08/07 07:48:19;;;;;;;16.80;11.60;;;;;;;26.40;58.76;101094.42;108647;1237;61629;-74
2022/08/07 07:51:06;;;;;;;14.20;11.30;;;;;;;26.51;58.06;101095.42;109477;1237;57396;-76
2022/08/07 07:53:45;;;;;;;15.30;12.20;;;;;;;26.57;57.47;101099.79;109621;1236;61355;-77
2022/08/07 07:56:24;;;;;;;14.60;11.80;;;;;;;26.57;57.61;101098.17;109753;1237;60815;-77
2022/08/07 07:59:04;;;;;;;13.70;11.20;;;;;;;26.67;57.53;101090.05;109615;1236;60962;-73
2022/08/07 08:01:37;;;;;;;14.30;10.80;;;;;;;26.80;56.93;101086.67;108601;1236;75953;-75
2022/08/07 08:04:27;;;;;;;14.50;10.90;;;;;;;26.83;55.81;101080.48;109277;1237;58938;-76
2022/08/07 08:06:55;;;;;;;15.10;10.10;;;;;;;26.97;55.03;101083.46;108975;1237;61174;-75
2022/08/07 08:09:28;;;;;;;;;;;;;;;26.99;54.33;101079.08;109209;1235;61784;-76
2022/08/07 08:11:58;;;;;;;16.20;10.10;;;;;;;26.99;54.44;101067.67;108988;1236;60931;-73
2022/08/07 08:14:34;;;;;;;10.90;9.80;;;;;;;27.18;54.20;101076.30;108686;1237;69836;-76
2022/08/07 08:17:09;;;;;;;10.60;9.50;;;;;;;27.20;53.49;101071.91;108871;1235;63850;-75
2022/08/07 08:20:05;;;;;;;13.70;9.20;;;;;;;27.40;52.52;101077.58;109087;1236;57879;-78
2022/08/07 08:32:01;;;;;;;11.10;8.40;;;;;;;27.89;49.64;101080.15;110804;1233;69786;31
2022/08/07 08:34:54;;;;;;;9.60;8.30;;;;;;;28.03;49.43;101081.17;111156;1236;63049;-79
2022/08/07 08:42:24;;;;;;;12.10;8.80;;;;;;;28.21;49.61;101071.02;110996;1233;60419;31
2022/08/07 08:45:25;;;;;;;10.60;8.90;;;;;;;28.28;49.52;101075.81;111046;1231;61185;-79
2022/08/07 08:48:36;;;;;;;10.50;8.60;;;;;;;28.32;49.59;101073.92;111020;1233;60897;-79
2022/08/07 08:56:12;;;;;;;10.40;7.10;;;;;;;28.44;47.06;101074.14;111428;1233;63684;31
2022/08/07 08:59:25;;;;;;;9.30;7.20;;;;;;;28.72;45.78;101078.97;111270;1231;60458;31
2022/08/07 09:02:46;;;;;;;10.70;8.70;;;;;;;28.79;46.41;101077.48;111264;1233;61801;-78
2022/08/07 09:05:51;;;;;;;9.90;8.20;;;;;;;29.03;46.93;101083.87;110708;1238;62295;-75
2022/08/07 09:08:37;;;;;;;;;;;;;;;29.12;45.35;101090.69;110290;1237;71606;-79
2022/08/07 09:11:37;;;;;;;12.70;8.70;;;;;;;29.07;46.36;101084.79;110583;1233;70764;-80
2022/08/07 09:17:42;;;;;;;10.60;9.50;;;;;;;29.22;48.70;101087.55;111011;1231;59843;-76
2022/08/07 09:20:59;;;;;;;10.80;8.60;;;;;;;29.10;48.26;101085.04;110183;1231;58960;-73
2022/08/07 09:24:37;;;;;;;10.50;9.30;;;;;;;29.31;47.72;101088.07;110488;1230;61361;-73
2022/08/07 09:27:54;;;;;;;11.20;9.30;;;;;;;29.37;48.15;101081.51;109008;1231;61935;-71
2022/08/07 09:31:02;;;;;;;10.40;9.10;;;;;;;29.38;48.49;101071.52;109017;1231;69880;-72
2022/08/07 09:34:02;;;;;;;10.00;8.50;;;;;;;29.22;46.47;101071.33;108912;1232;75284;-73
2022/08/07 09:36:52;;;;;;;9.10;7.90;;;;;;;29.34;46.77;101068.66;109175;1231;59024;-73
2022/08/07 09:39:21;;;;;;;11.00;8.10;;;;;;;29.63;45.71;101072.77;109088;1232;58927;-73
2022/08/07 09:42:14;;;;;;;14.10;8.60;;;;;;;29.80;45.59;101067.11;109038;1231;73164;-73
2022/08/07 09:45:14;;;;;;;10.20;9.10;;;;;;;29.95;45.71;101068.73;108941;1231;72931;-71
2022/08/07 09:48:23;;;;;;;10.60;8.70;;;;;;;29.76;46.88;101069.24;109124;1231;70263;-72
2022/08/07 09:51:28;;;;;;;11.60;9.20;;;;;;;29.63;47.25;101075.64;109053;1231;73916;-72
2022/08/07 09:54:36;;;;;;;12.10;9.60;;;;;;;29.29;48.89;101072.61;109100;1231;57437;-75
2022/08/07 09:57:16;;;;;;;13.00;9.30;;;;;;;29.06;50.25;101067.38;109168;1234;57675;-72
2022/08/07 10:00:10;;;;;;;11.10;8.90;;;;;;;29.07;51.12;101076.07;108937;1231;72365;-74
2022/08/07 10:03:33;;;;;;;9.80;8.70;;;;;;;28.98;51.54;101064.73;109275;1231;62262;-76
2022/08/07 10:06:54;;;;;;;9.50;8.30;;;;;;;29.02;51.73;101073.55;108878;1232;69560;-70
2022/08/07 10:10:02;;;;;;;9.40;8.00;;;;;;;28.98;52.25;101068.91;109132;1231;64304;-71
2022/08/07 10:13:37;;;;;;;10.30;8.00;;;;;;;29.01;52.29;101068.92;109057;1231;59603;-75
2022/08/07 10:16:40;;;;;;;10.70;8.10;;;;;;;28.77;53.14;101077.46;108388;1238;57384;-73
2022/08/07 10:19:38;;;;;;;12.70;8.20;;;;;;;28.63;53.22;101077.52;108395;1237;73178;-72
2022/08/07 10:22:47;;;;;;;16.70;7.80;;;;;;;28.60;53.10;101074.77;109035;1231;62929;-71
2022/08/07 10:26:14;;;;;;;8.50;6.50;;;;;;;28.57;53.51;101078.56;109222;1231;69694;-79
2022/08/07 10:29:31;;;;;;;10.20;6.20;;;;;;;28.59;53.28;101091.03;109509;1232;63750;-72
2022/08/07 10:40:32;;;;;;;6.60;4.90;;;;;;;28.82;51.76;101092.92;110837;1233;73056;31
2022/08/07 12:14:26;;;;;;;8.20;4.30;;;;;;;29.66;44.65;101117.45;111095;1231;61788;31
2022/08/07 12:17:11;;;;;;;6.70;3.90;;;;;;;29.94;43.92;101132.91;110787;1234;72468;-80
2022/08/07 12:20:02;;;;;;;6.70;4.20;;;;;;;29.93;43.84;101137.19;110847;1235;71963;-80
2022/08/07 12:23:21;;;;;;;6.40;4.30;;;;;;;29.97;43.73;101137.71;110391;1235;70107;-81
2022/08/07 12:26:50;;;;;;;6.00;4.40;;;;;;;29.91;43.38;101126.58;110865;1234;73773;-79
2022/08/07 12:33:52;;;;;;;5.70;4.60;;;;;;;29.99;43.23;101126.14;111115;1235;58312;-81
2022/08/07 12:36:35;;;;;;;7.20;4.90;;;;;;;29.82;43.55;101130.77;110789;1235;72724;-80
2022/08/07 12:43:45;;;;;;;6.70;5.50;;;;;;;30.19;42.99;101124.41;111332;1231;69477;31
2022/08/07 12:59:01;;;;;;;5.10;3.70;;;;;;;29.74;42.65;101138.55;110890;1234;72145;-83
2022/08/07 13:14:15;;;;;;;6.90;3.40;;;;;;;30.08;42.80;101132.14;111021;1234;59720;-82
2022/08/07 13:17:08;;;;;;;5.90;3.70;;;;;;;29.85;43.25;101138.66;110745;1237;57604;-82
2022/08/07 13:31:59;;;;;;;5.20;3.50;;;;;;;31.04;41.06;101118.89;111256;1231;71770;-81
2022/08/07 13:39:06;;;;;;;4.90;3.90;;;;;;;30.24;42.75;101112.31;110411;1236;58991;-78
2022/08/07 13:41:55;;;;;;;5.80;3.70;;;;;;;30.43;42.39;101114.41;110804;1236;63042;-81
2022/08/07 14:01:15;;;;;;;4.70;3.10;;;;;;;30.98;41.20;101100.33;110961;1231;62338;-78
2022/08/07 14:04:56;;;;;;;5.10;3.30;;;;;;;31.12;41.12;101101.44;111178;1232;62517;-80
2022/08/07 14:07:41;;;;;;;4.70;3.10;;;;;;;31.34;40.39;101107.47;111075;1231;70674;-80
2022/08/07 14:12:05;;;;;;;5.10;3.30;;;;;;;31.27;40.73;101102.69;110547;1235;59731;-82
2022/08/07 14:14:53;;;;;;;5.90;3.50;;;;;;;31.34;40.64;101088.55;110477;1235;73269;-78
2022/08/07 14:17:24;;;;;;;5.10;3.00;;;;;;;31.06;41.17;101091.36;110624;1236;60843;-79
2022/08/07 14:24:55;;;;;;;5.10;3.80;;;;;;;31.53;39.98;101092.52;110866;1234;62495;-80
2022/08/07 14:27:50;;;;;;;8.10;3.60;;;;;;;31.32;40.62;101100.30;110643;1235;62501;-80
2022/08/07 14:30:38;;;;;;;4.20;3.70;;;;;;;31.61;40.06;101094.08;110970;1233;70044;-81
2022/08/07 14:33:08;;;;;;;4.60;3.10;;;;;;;31.65;39.92;101098.16;111062;1233;62853;-82
2022/08/07 14:36:41;;;;;;;5.70;3.40;;;;;;;31.20;40.45;101092.75;111262;1231;60291;-81
2022/08/07 14:40:25;;;;;;;5.30;3.00;;;;;;;31.78;39.57;101100.20;110609;1236;61132;-81
2022/08/07 14:43:15;;;;;;;3.70;3.10;;;;;;;31.44;39.97;101102.75;110615;1236;62842;-80
2022/08/07 14:54:18;;;;;;;7.50;3.30;;;;;;;31.61;39.69;101091.80;110726;1235;62753;-78
2022/08/07 14:57:48;;;;;;;4.00;2.90;;;;;;;31.55;39.71;101089.42;110445;1238;57556;-79
2022/08/07 15:00:32;;;;;;;4.60;2.90;;;;;;;31.51;39.78;101094.27;110871;1235;59523;-79
2022/08/07 15:11:18;;;;;;;7.20;3.00;;;;;;;32.03;38.49;101094.92;111255;1234;59186;-80
2022/08/07 15:14:36;;;;;;;4.30;2.70;;;;;;;31.49;39.62;101097.63;110967;1229;62546;31
2022/08/07 15:18:29;;;;;;;5.10;2.80;;;;;;;31.86;38.75;101092.56;111078;1233;57759;-80
2022/08/07 15:21:30;;;;;;;4.40;2.40;;;;;;;31.89;38.50;101104.08;110427;1234;58783;-80
2022/08/07 15:24:30;;;;;;;3.30;2.20;;;;;;;31.64;38.73;101105.71;110798;1231;62258;-80
2022/08/07 15:27:25;;;;;;;6.10;2.20;;;;;;;30.94;39.84;101101.38;110681;1233;72192;-77
2022/08/07 15:30:06;;;;;;;7.20;2.20;;;;;;;30.96;39.98;101094.80;110290;1234;60773;-77
2022/08/07 15:32:49;;;;;;;2.80;2.00;;;;;;;31.06;39.62;101102.83;110779;1233;64056;-78
2022/08/07 15:35:36;;;;;;;3.70;2.00;;;;;;;30.78;39.92;101112.35;110668;1231;60844;-79
2022/08/07 15:42:44;;;;;;;3.70;2.10;;;;;;;31.08;39.58;101111.62;110687;1237;62276;-80
2022/08/07 15:45:37;;;;;;;5.50;2.20;;;;;;;31.10;39.34;101115.70;110790;1237;71987;-81
2022/08/07 15:48:31;;;;;;;3.70;2.20;;;;;;;30.98;39.37;101119.81;109753;1237;59678;-77
2022/08/07 15:51:15;;;;;;;3.00;1.80;;;;;;;30.71;39.59;101131.59;109784;1237;62494;-80
2022/08/07 15:53:51;;;;;;;3.50;1.90;;;;;;;30.15;40.68;101136.39;109910;1237;58142;-81
2022/08/07 16:00:52;;;;;;;4.70;2.30;;;;;;;29.69;41.68;101132.05;110366;1237;63260;-79
2022/08/07 16:04:29;;;;;;;2.10;1.50;;;;;;;29.44;42.07;101141.98;111035;1233;60795;-76
2022/08/07 16:07:05;;;;;;;3.20;1.90;;;;;;;29.17;42.42;101142.81;110605;1233;59435;-79
2022/08/07 16:10:26;;;;;;;2.70;1.70;;;;;;;28.91;43.02;101143.84;110229;1235;73036;-77
2022/08/07 16:17:08;;;;;;;3.00;1.80;;;;;;;28.42;44.00;101147.38;110691;1227;59071;-80
2022/08/07 16:20:24;;;;;;;4.20;1.90;;;;;;;28.18;44.81;101149.63;110825;1228;71205;-76
2022/08/07 16:28:18;;;;;;;3.50;1.70;;;;;;;27.83;45.32;101157.41;111527;1228;60348;31
2022/08/07 16:32:00;;;;;;;3.00;1.90;;;;;;;27.74;45.52;101161.27;111492;1230;71560;-79
2022/08/07 16:35:13;;;;;;;3.70;1.90;;;;;;;27.54;46.01;101160.98;111161;1230;58009;-79
2022/08/07 16:38:53;;;;;;;2.90;1.50;;;;;;;27.22;46.75;101164.05;111061;1230;57285;-79
2022/08/07 17:02:02;;;;;;;3.90;2.10;;;;;;;25.17;52.09;101206.97;111309;1228;63980;-77
2022/08/07 17:14:04;;;;;;;3.20;1.90;;;;;;;23.47;57.13;101234.79;109515;1232;70621;-75
2022/08/07 17:18:22;;;;;;;4.80;2.40;;;;;;;23.06;58.36;101234.47;109896;1233;63308;-79
2022/08/07 17:20:55;;;;;;;4.10;2.30;;;;;;;22.78;59.31;101259.77;108911;1233;57578;-77
2022/08/07 17:24:13;;;;;;;3.80;2.40;;;;;;;22.56;60.66;101264.84;109066;1232;59141;-76
2022/08/07 17:35:18;;;;;;;3.20;2.00;;;;;;;21.93;62.58;101295.77;111944;1227;70060;-75